Time;durP1;ratioP1;P1;durP2;ratioP2;P2;SDS_P1;SDS_P2;PMS_P1;PMS_P2;Temp;Humidity;BMP_temperature;BMP_pressure;BME280_temperature;BME280_humidity;BME280_pressure;Samples;Min_cycle;Max_cycle;Signal;HPM_P1;HPM_P2
2022/09/28 00:01:21;;;;;;;;;;;7.20;99.90;;;;;;5072551;28;20043;-69
2022/09/28 00:03:48;;;;;;;3.38;2.03;;;7.20;99.90;;;;;;5056729;28;20384;-67
2022/09/28 00:06:17;;;;;;;4.30;1.75;;;7.30;99.90;;;;;;5060398;28;20049;-67
2022/09/28 00:08:43;;;;;;;3.80;1.80;;;7.30;99.90;;;;;;5060347;28;20036;-67
2022/09/28 00:11:11;;;;;;;;;;;7.30;99.90;;;;;;5061485;28;20032;-68
2022/09/28 00:13:36;;;;;;;4.85;1.73;;;7.30;99.90;;;;;;5059824;28;19920;-69
2022/09/28 00:16:03;;;;;;;;;;;7.20;99.90;;;;;;5061307;28;20585;-67
2022/09/28 00:18:29;;;;;;;5.43;1.60;;;7.30;99.90;;;;;;5049041;28;20034;-67
2022/09/28 00:21:10;;;;;;;2.17;1.30;;;7.30;99.90;;;;;;5046631;28;20033;-67
2022/09/28 00:26:21;;;;;;;3.35;1.50;;;7.40;99.90;;;;;;5047070;28;20048;-69
2022/09/28 00:28:50;;;;;;;1.55;1.30;;;7.40;99.90;;;;;;5047379;28;20033;-66
2022/09/28 00:31:17;;;;;;;5.13;1.30;;;7.30;99.90;;;;;;5057725;28;20044;-67
2022/09/28 00:33:43;;;;;;;2.40;1.13;;;7.40;99.90;;;;;;5070411;28;20032;-70
2022/09/28 00:36:09;;;;;;;;;;;7.40;99.90;;;;;;5074874;28;20071;-68
2022/09/28 00:38:35;;;;;;;2.58;1.02;;;7.40;99.90;;;;;;5073150;28;20046;-67
2022/09/28 00:41:00;;;;;;;;;;;7.40;99.90;;;;;;5074944;28;20040;-67
2022/09/28 00:43:26;;;;;;;4.57;1.35;;;7.40;99.90;;;;;;5066068;28;20422;-67
2022/09/28 00:46:04;;;;;;;3.00;1.50;;;7.40;99.90;;;;;;5076066;28;20045;-67
2022/09/28 00:48:35;;;;;;;2.47;1.20;;;7.40;99.90;;;;;;5074593;28;20036;-68
2022/09/28 00:51:05;;;;;;;8.57;1.30;;;7.40;99.90;;;;;;5074992;28;20527;-67
2022/09/28 00:53:33;;;;;;;1.75;0.85;;;7.40;99.90;;;;;;5075514;28;20048;-68
2022/09/28 00:56:10;;;;;;;1.58;0.80;;;7.40;99.90;;;;;;5074125;28;20059;-68
2022/09/28 00:58:41;;;;;;;2.97;1.10;;;7.40;99.90;;;;;;5076756;28;20109;-68
2022/09/28 01:01:07;;;;;;;2.05;1.10;;;7.40;99.90;;;;;;5075773;28;20040;-67
2022/09/28 01:03:33;;;;;;;;;;;7.40;99.90;;;;;;5075707;28;20348;-67
2022/09/28 01:06:02;;;;;;;1.38;1.08;;;7.40;99.90;;;;;;5067523;28;20340;-67
2022/09/28 01:08:30;;;;;;;2.30;1.13;;;7.40;99.90;;;;;;5085040;28;20838;-67
2022/09/28 01:10:58;;;;;;;1.83;0.88;;;7.40;99.90;;;;;;5072486;28;20093;-67
2022/09/28 01:13:23;;;;;;;1.00;0.80;;;7.30;99.90;;;;;;5064759;28;20127;-67
2022/09/28 01:16:03;;;;;;;;;;;7.30;99.90;;;;;;5073719;28;20150;-68
2022/09/28 01:18:46;;;;;;;2.67;0.80;;;7.40;99.90;;;;;;5081144;28;20600;-69
2022/09/28 01:21:18;;;;;;;0.60;0.60;;;7.30;99.90;;;;;;5073713;28;20047;-67
2022/09/28 01:24:14;;;;;;;1.55;0.50;;;7.30;99.90;;;;;;5077463;28;20078;-67
2022/09/28 01:26:58;;;;;;;1.33;0.70;;;7.20;99.90;;;;;;5078170;28;20663;-67
2022/09/28 01:29:43;;;;;;;3.10;0.80;;;7.30;99.90;;;;;;5062173;28;20497;-67
2022/09/28 01:32:24;;;;;;;2.15;1.00;;;7.20;99.90;;;;;;5039373;28;20033;-69
2022/09/28 01:35:13;;;;;;;1.63;0.70;;;7.20;99.90;;;;;;5042663;28;20072;-67
2022/09/28 01:38:03;;;;;;;0.95;0.60;;;7.20;99.90;;;;;;5044655;28;20037;-68
2022/09/28 01:40:31;;;;;;;2.13;0.70;;;7.30;99.90;;;;;;5036781;28;20080;-69
2022/09/28 01:43:02;;;;;;;1.13;0.65;;;7.30;99.90;;;;;;5045566;28;20098;-69
2022/09/28 01:45:39;;;;;;;1.75;0.70;;;7.30;99.90;;;;;;5045122;28;20040;-68
2022/09/28 01:48:06;;;;;;;3.28;1.10;;;7.30;99.90;;;;;;5037767;28;20358;-68
2022/09/28 01:50:37;;;;;;;2.35;0.65;;;7.30;99.90;;;;;;5039124;28;20037;-67
2022/09/28 01:53:10;;;;;;;2.72;0.80;;;7.30;99.90;;;;;;5034432;28;20041;-68
2022/09/28 01:55:49;;;;;;;1.60;0.93;;;7.30;99.90;;;;;;5036577;28;20112;-67
2022/09/28 01:58:23;;;;;;;2.55;0.70;;;7.40;99.90;;;;;;5032921;28;20042;-67
2022/09/28 02:00:55;;;;;;;1.60;0.65;;;7.40;99.90;;;;;;5044010;28;20748;-68
2022/09/28 02:03:28;;;;;;;1.05;0.52;;;7.30;99.90;;;;;;5043652;28;20041;-67
2022/09/28 02:05:59;;;;;;;1.10;0.60;;;7.30;99.90;;;;;;5043966;28;20051;-68
2022/09/28 02:08:39;;;;;;;2.95;0.70;;;7.30;99.90;;;;;;5041625;28;20047;-69
2022/09/28 02:11:16;;;;;;;1.17;0.73;;;7.30;99.90;;;;;;5043153;28;20129;-69
2022/09/28 02:13:49;;;;;;;3.65;0.80;;;7.30;99.90;;;;;;5043567;28;20120;-67
2022/09/28 02:16:41;;;;;;;1.70;0.68;;;7.30;99.90;;;;;;5041185;28;20036;-69
2022/09/28 02:19:15;;;;;;;1.85;0.60;;;7.20;99.90;;;;;;5038544;28;20067;-69
2022/09/28 02:22:02;;;;;;;1.17;0.70;;;7.20;99.90;;;;;;5043964;28;20098;-68
2022/09/28 02:24:40;;;;;;;1.20;0.80;;;7.30;99.90;;;;;;5039171;28;20053;-67
2022/09/28 02:27:31;;;;;;;1.45;0.80;;;7.20;99.90;;;;;;5045014;28;20050;-67
2022/09/28 02:29:57;;;;;;;3.90;0.55;;;7.30;99.90;;;;;;5045080;28;20390;-67
2022/09/28 02:32:22;;;;;;;;;;;7.30;99.90;;;;;;5047393;28;20051;-66
2022/09/28 02:34:48;;;;;;;2.97;0.70;;;7.30;99.90;;;;;;5043990;28;19942;-66
2022/09/28 02:37:14;;;;;;;;;;;7.30;99.90;;;;;;5048250;28;20125;-70
2022/09/28 02:39:39;;;;;;;2.17;0.98;;;7.30;99.90;;;;;;5044970;28;20453;-68
2022/09/28 02:42:34;;;;;;;;;;;7.30;99.90;;;;;;5047998;28;20044;-68
2022/09/28 02:45:12;;;;;;;1.77;0.50;;;7.30;99.90;;;;;;5027699;28;19939;-69
2022/09/28 02:48:14;;;;;;;0.90;0.75;;;7.30;99.90;;;;;;5043649;28;20404;-69
2022/09/28 02:51:10;;;;;;;4.05;0.80;;;7.30;99.90;;;;;;5038846;28;20485;-67
2022/09/28 02:53:57;;;;;;;2.95;0.70;;;7.30;99.90;;;;;;5038575;28;20095;-67
2022/09/28 02:56:56;;;;;;;3.33;0.80;;;7.30;99.90;;;;;;5045222;28;20053;-68
2022/09/28 02:59:37;;;;;;;0.98;0.70;;;7.30;99.90;;;;;;5038363;28;20048;-67
2022/09/28 03:02:24;;;;;;;2.22;0.80;;;7.30;99.90;;;;;;5059311;28;20048;-67
2022/09/28 03:05:18;;;;;;;2.20;1.15;;;7.30;99.90;;;;;;5058902;28;20036;-68
2022/09/28 03:08:05;;;;;;;3.75;1.05;;;7.30;99.90;;;;;;5064616;28;20044;-67
2022/09/28 03:10:52;;;;;;;1.75;1.42;;;7.20;99.90;;;;;;5062638;28;20047;-67
2022/09/28 03:13:19;;;;;;;3.33;1.63;;;7.20;99.90;;;;;;5059149;28;20029;-67
2022/09/28 03:15:44;;;;;;;2.13;1.60;;;7.10;99.90;;;;;;5064373;28;20048;-69
2022/09/28 03:18:10;;;;;;;;;;;7.00;99.90;;;;;;5056977;28;20086;-67
2022/09/28 03:20:36;;;;;;;2.53;2.13;;;7.10;99.90;;;;;;5064188;28;19922;-67
2022/09/28 03:23:01;;;;;;;;;;;7.00;99.90;;;;;;5054726;28;20386;-69
2022/09/28 03:25:27;;;;;;;2.25;1.85;;;7.00;99.90;;;;;;5062821;28;19920;-68
2022/09/28 03:27:53;;;;;;;;;;;7.00;99.90;;;;;;5059841;28;20067;-66
2022/09/28 03:30:18;;;;;;;2.80;2.03;;;7.00;99.90;;;;;;5063897;28;19970;-68
2022/09/28 03:32:44;;;;;;;2.50;2.10;;;7.00;99.90;;;;;;5064439;28;20538;-67
2022/09/28 03:35:10;;;;;;;3.78;2.38;;;6.90;99.90;;;;;;5062796;28;20037;-68
2022/09/28 03:37:35;;;;;;;;;;;7.00;99.90;;;;;;5064696;28;20049;-67
2022/09/28 03:40:01;;;;;;;3.67;2.35;;;7.00;99.90;;;;;;5064238;28;20023;-67
2022/09/28 03:42:27;;;;;;;5.65;2.58;;;7.00;99.90;;;;;;5064096;28;20869;-68
2022/09/28 03:44:52;;;;;;;;;;;7.00;99.90;;;;;;5063908;28;20037;-69
2022/09/28 03:47:18;;;;;;;3.97;2.38;;;6.90;99.90;;;;;;5065026;28;19978;-67
2022/09/28 03:49:44;;;;;;;;;;;6.90;99.90;;;;;;5062118;28;20051;-68
2022/09/28 03:52:10;;;;;;;4.93;2.95;;;6.90;99.90;;;;;;5065177;28;19916;-67
2022/09/28 03:54:36;;;;;;;3.53;2.90;;;7.00;99.90;;;;;;5067411;28;20044;-69
2022/09/28 03:57:01;;;;;;;;;;;7.00;99.90;;;;;;5069165;28;20055;-69
2022/09/28 03:59:27;;;;;;;4.90;3.33;;;6.90;99.90;;;;;;5067778;28;19921;-67
2022/09/28 04:01:52;;;;;;;;;;;6.90;99.90;;;;;;5074809;28;20028;-68
2022/09/28 04:04:18;;;;;;;4.63;3.45;;;6.80;99.90;;;;;;5076563;28;20439;-68
2022/09/28 04:06:44;;;;;;;6.07;3.95;;;6.80;99.90;;;;;;5071952;28;20044;-68
2022/09/28 04:09:11;;;;;;;5.00;3.47;;;6.80;99.90;;;;;;5078073;28;20040;-67
2022/09/28 04:11:36;;;;;;;5.40;3.70;;;6.80;99.90;;;;;;5072739;28;20029;-67
2022/09/28 04:14:02;;;;;;;;;;;6.70;99.90;;;;;;5066310;28;20569;-68
2022/09/28 04:16:28;;;;;;;5.25;3.65;;;6.70;99.90;;;;;;5076119;28;19941;-68
2022/09/28 04:18:53;;;;;;;;;;;6.70;99.90;;;;;;5074065;28;20040;-67
2022/09/28 04:21:19;;;;;;;3.63;2.65;;;6.70;99.90;;;;;;5078950;28;19920;-67
2022/09/28 04:23:46;;;;;;;4.38;3.20;;;6.70;99.90;;;;;;5078089;28;20119;-68
2022/09/28 04:26:17;;;;;;;3.10;2.53;;;6.70;99.90;;;;;;5078273;28;20071;-68
2022/09/28 04:31:29;;;;;;;3.17;2.65;;;6.60;99.90;;;;;;5076095;28;20499;-67
2022/09/28 04:33:56;;;;;;;5.35;2.85;;;6.60;99.90;;;;;;5069671;28;20032;-67
2022/09/28 04:36:23;;;;;;;3.47;2.40;;;6.70;99.90;;;;;;5075548;28;20041;-69
2022/09/28 04:38:51;;;;;;;3.35;2.30;;;6.60;99.90;;;;;;5070223;28;20045;-67
2022/09/28 04:41:17;;;;;;;3.15;2.17;;;6.60;99.90;;;;;;5072076;28;20040;-67
2022/09/28 04:43:42;;;;;;;5.10;2.88;;;6.50;99.90;;;;;;5065881;28;20037;-67
2022/09/28 04:46:09;;;;;;;;;;;6.60;99.90;;;;;;5078828;28;20072;-67
2022/09/28 04:48:36;;;;;;;4.23;2.80;;;6.60;99.90;;;;;;5071446;28;19921;-68
2022/09/28 04:51:02;;;;;;;5.57;2.70;;;6.60;99.90;;;;;;5059335;28;20302;-67
2022/09/28 04:53:28;;;;;;;4.75;3.42;;;6.60;99.90;;;;;;5068719;28;20028;-67
2022/09/28 04:56:05;;;;;;;7.18;3.05;;;6.60;99.90;;;;;;5074779;28;20093;-65
2022/09/28 04:58:33;;;;;;;6.68;3.22;;;6.60;99.90;;;;;;5071573;28;20045;-68
2022/09/28 05:01:01;;;;;;;6.85;3.45;;;6.60;99.90;;;;;;5061806;28;20079;-65
2022/09/28 05:03:27;;;;;;;8.65;3.63;;;6.60;99.90;;;;;;5045089;28;20051;-64
2022/09/28 05:05:53;;;;;;;6.35;3.58;;;6.60;99.90;;;;;;5044427;28;20397;-65
2022/09/28 05:08:19;;;;;;;;;;;6.70;99.90;;;;;;5037526;28;20044;-66
2022/09/28 05:10:45;;;;;;;4.70;3.38;;;6.70;99.90;;;;;;5045187;28;19921;-67
2022/09/28 05:13:12;;;;;;;7.18;3.47;;;6.70;99.90;;;;;;5045689;28;20047;-68
2022/09/28 05:15:41;;;;;;;5.93;3.83;;;6.70;99.90;;;;;;5037915;28;20037;-66
2022/09/28 05:18:07;;;;;;;7.93;3.97;;;6.70;99.90;;;;;;5043638;28;20082;-67
2022/09/28 05:20:33;;;;;;;6.57;4.20;;;6.70;99.90;;;;;;5042418;28;20049;-66
2022/09/28 05:22:59;;;;;;;5.80;4.10;;;6.80;99.90;;;;;;5028833;28;20049;-67
2022/09/28 05:25:24;;;;;;;;;;;6.70;99.90;;;;;;5045528;28;20079;-67
2022/09/28 05:27:55;;;;;;;6.20;3.10;;;6.70;99.90;;;;;;5038818;28;19943;-66
2022/09/28 05:30:21;;;;;;;7.22;2.80;;;6.70;99.90;;;;;;5039779;28;20517;-66
2022/09/28 05:32:49;;;;;;;6.85;3.40;;;6.70;99.90;;;;;;5036928;28;20037;-65
2022/09/28 05:35:15;;;;;;;5.53;3.10;;;6.70;99.90;;;;;;5040421;28;20044;-64
2022/09/28 05:37:41;;;;;;;;;;;6.70;99.90;;;;;;5038379;28;20049;-66
2022/09/28 05:40:07;;;;;;;5.20;2.38;;;6.70;99.90;;;;;;5045366;28;19921;-68
2022/09/28 05:42:33;;;;;;;4.18;2.30;;;6.60;99.90;;;;;;5046232;28;20521;-68
2022/09/28 05:44:58;;;;;;;3.90;2.33;;;6.60;99.90;;;;;;5045214;28;20072;-67
2022/09/28 05:47:27;;;;;;;3.97;2.55;;;6.60;99.90;;;;;;5046170;28;21137;-66
2022/09/28 05:49:52;;;;;;;12.75;3.03;;;6.60;99.90;;;;;;5042180;28;20041;-69
2022/09/28 05:52:18;;;;;;;3.42;2.45;;;6.60;99.90;;;;;;5041913;28;20034;-65
2022/09/28 05:54:45;;;;;;;4.95;2.53;;;6.70;99.90;;;;;;5040605;28;20124;-68
2022/09/28 05:57:11;;;;;;;7.03;3.60;;;6.70;99.90;;;;;;5041829;28;20685;-67
2022/09/28 05:59:37;;;;;;;4.78;3.10;;;6.70;99.90;;;;;;5041777;28;20044;-67
2022/09/28 06:02:03;;;;;;;;;;;6.80;99.90;;;;;;5043210;28;20044;-67
2022/09/28 06:04:29;;;;;;;6.25;3.35;;;6.80;99.90;;;;;;5044626;28;20027;-66
2022/09/28 06:06:54;;;;;;;;;;;6.80;99.90;;;;;;5044021;28;20116;-69
2022/09/28 06:09:22;;;;;;;5.63;2.90;;;6.80;99.90;;;;;;5046232;28;19960;-64
2022/09/28 06:11:49;;;;;;;4.47;2.78;;;6.80;99.90;;;;;;5045471;28;20053;-66
2022/09/28 06:14:14;;;;;;;3.67;2.17;;;6.90;99.90;;;;;;5051852;28;20041;-67
2022/09/28 06:16:40;;;;;;;;;;;6.90;99.90;;;;;;5040656;28;20799;-65
2022/09/28 06:19:10;;;;;;;5.47;2.85;;;6.90;99.90;;;;;;5041209;28;19974;-66
2022/09/28 06:21:36;;;;;;;5.97;3.05;;;6.90;99.90;;;;;;5044200;28;20037;-65
2022/09/28 06:24:02;;;;;;;;;;;6.90;99.90;;;;;;5045757;28;20106;-66
2022/09/28 06:26:27;;;;;;;5.70;3.45;;;6.90;99.90;;;;;;5046176;28;20856;-65
2022/09/28 06:28:53;;;;;;;5.05;3.40;;;6.80;99.90;;;;;;5045484;28;20646;-66
2022/09/28 06:31:22;;;;;;;4.38;2.83;;;6.70;99.90;;;;;;5044399;28;20463;-65
2022/09/28 06:33:51;;;;;;;4.15;2.97;;;6.70;99.90;;;;;;5044786;28;20033;-66
2022/09/28 06:36:17;;;;;;;6.20;3.65;;;6.70;99.90;;;;;;5039511;28;20739;-65
2022/09/28 06:38:44;;;;;;;5.70;3.58;;;6.80;99.90;;;;;;5040823;28;20076;-65
2022/09/28 06:41:10;;;;;;;8.48;4.72;;;6.90;99.90;;;;;;5040103;28;20045;-65
2022/09/28 06:43:38;;;;;;;8.77;4.25;;;6.80;99.90;;;;;;5049532;28;20124;-66
2022/09/28 06:46:05;;;;;;;5.88;4.25;;;6.80;99.90;;;;;;5044195;28;20105;-66
2022/09/28 06:48:32;;;;;;;6.07;3.83;;;6.90;99.90;;;;;;5044455;28;20044;-65
2022/09/28 06:51:01;;;;;;;16.48;4.82;;;6.80;99.90;;;;;;5047135;28;20071;-65
2022/09/28 06:53:27;;;;;;;7.25;4.35;;;6.90;99.90;;;;;;5042819;28;20072;-65
2022/09/28 06:55:54;;;;;;;7.90;4.53;;;6.90;99.90;;;;;;5043620;28;20036;-67
2022/09/28 06:58:21;;;;;;;5.63;3.88;;;6.90;99.90;;;;;;5043548;28;20630;-66
2022/09/28 07:00:49;;;;;;;6.82;3.55;;;6.90;99.90;;;;;;5042561;28;20435;-66
2022/09/28 07:03:17;;;;;;;8.98;4.22;;;6.90;99.90;;;;;;5043590;28;20041;-66
2022/09/28 07:05:53;;;;;;;7.47;4.75;;;6.90;99.90;;;;;;5043557;28;20068;-66
2022/09/28 07:08:23;;;;;;;9.20;5.00;;;6.90;99.90;;;;;;5042184;28;20072;-67
2022/09/28 07:10:56;;;;;;;7.55;4.00;;;6.90;99.90;;;;;;5043684;28;20053;-69
2022/09/28 07:13:30;;;;;;;7.18;3.90;;;6.90;99.90;;;;;;5043036;28;20044;-66
2022/09/28 07:16:00;;;;;;;9.93;4.18;;;7.00;99.90;;;;;;5045613;28;20045;-67
2022/09/28 07:18:27;;;;;;;7.40;3.67;;;7.00;99.90;;;;;;5043987;28;20068;-66
2022/09/28 07:20:56;;;;;;;8.43;5.00;;;7.00;99.90;;;;;;5043062;28;20116;-66
2022/09/28 07:23:22;;;;;;;8.55;4.63;;;7.10;99.90;;;;;;5040675;28;20045;-66
2022/09/28 07:25:48;;;;;;;5.70;4.00;;;7.10;99.90;;;;;;5043816;28;20424;-68
2022/09/28 07:28:14;;;;;;;;;;;7.20;99.90;;;;;;5046414;28;20037;-66
2022/09/28 07:30:41;;;;;;;6.60;3.88;;;7.20;99.90;;;;;;5046552;28;19978;-66
2022/09/28 07:33:11;;;;;;;7.40;3.97;;;7.30;99.90;;;;;;5063005;28;20045;-66
2022/09/28 07:35:37;;;;;;;10.60;3.92;;;7.30;99.90;;;;;;5048811;28;20043;-66
2022/09/28 07:38:04;;;;;;;;;;;7.30;99.90;;;;;;5047809;28;20463;-67
2022/09/28 07:43:21;;;;;;;6.20;3.95;;;7.30;99.90;;;;;;5046113;28;20380;-66
2022/09/28 07:45:48;;;;;;;7.07;4.45;;;7.30;99.90;;;;;;5051269;28;20048;-66
2022/09/28 07:48:15;;;;;;;5.07;4.03;;;7.20;99.90;;;;;;5045487;28;20029;-66
2022/09/28 07:51:01;;;;;;;6.35;4.28;;;7.10;99.90;;;;;;5047652;28;20037;-66
2022/09/28 07:53:27;;;;;;;7.07;4.35;;;7.10;99.90;;;;;;5043890;28;20724;-65
2022/09/28 07:56:03;;;;;;;5.93;3.45;;;7.10;99.90;;;;;;5049467;28;20041;-65
2022/09/28 07:58:31;;;;;;;4.78;3.03;;;7.10;99.90;;;;;;5048496;28;20749;-66
2022/09/28 08:00:59;;;;;;;7.88;3.75;;;7.10;99.90;;;;;;5046443;28;20067;-65
2022/09/28 08:03:26;;;;;;;4.97;3.00;;;7.10;99.90;;;;;;5046741;28;20044;-66
2022/09/28 08:05:59;;;;;;;4.65;2.70;;;7.10;99.90;;;;;;5045374;28;20505;-66
2022/09/28 08:08:26;;;;;;;4.50;3.10;;;7.10;99.90;;;;;;5048618;28;20697;-65
2022/09/28 08:10:52;;;;;;;4.85;2.88;;;7.10;99.90;;;;;;5047460;28;20044;-65
2022/09/28 08:13:18;;;;;;;;;;;7.00;99.90;;;;;;5047036;28;20037;-64
2022/09/28 08:15:47;;;;;;;12.07;4.30;;;7.00;99.90;;;;;;5049143;28;19916;-65
2022/09/28 08:18:13;;;;;;;9.85;5.28;;;6.90;99.90;;;;;;5055061;28;20048;-66
2022/09/28 08:23:22;;;;;;;9.65;6.07;;;6.80;99.90;;;;;;5032056;28;19921;-65
2022/09/28 08:25:54;;;;;;;;;;;6.80;99.90;;;;;;5047980;28;20063;-65
2022/09/28 08:28:21;;;;;;;13.85;6.38;;;6.80;99.90;;;;;;5045747;28;19940;-65
2022/09/28 08:30:47;;;;;;;10.80;6.88;;;6.90;99.90;;;;;;5045076;28;20202;-65
2022/09/28 08:33:16;;;;;;;11.10;6.60;;;6.80;99.90;;;;;;5054892;28;20045;-66
2022/09/28 08:35:42;;;;;;;13.38;7.55;;;6.90;99.90;;;;;;5045971;28;20064;-66
2022/09/28 08:38:09;;;;;;;13.43;7.38;;;6.90;99.90;;;;;;5044483;28;20066;-66
2022/09/28 08:40:48;;;;;;;11.02;7.55;;;6.90;99.90;;;;;;5047013;28;20095;-66
2022/09/28 08:43:28;;;;;;;11.95;7.05;;;7.00;99.90;;;;;;5062589;28;20046;-65
2022/09/28 08:45:57;;;;;;;13.05;7.13;;;7.00;99.90;;;;;;5045889;28;20053;-66
2022/09/28 08:48:43;;;;;;;13.02;8.20;;;6.90;99.90;;;;;;5046087;28;20041;-66
2022/09/28 08:51:43;;;;;;;12.18;7.45;;;7.00;99.90;;;;;;5045804;28;20041;-65
2022/09/28 08:54:30;;;;;;;13.23;7.93;;;7.10;99.90;;;;;;5032669;28;20106;-66
2022/09/28 08:57:05;;;;;;;11.73;7.95;;;7.10;99.90;;;;;;5050487;28;20041;-66
2022/09/28 08:59:39;;;;;;;15.23;8.40;;;7.10;99.90;;;;;;5046446;28;20633;-65
2022/09/28 09:02:15;;;;;;;17.58;9.55;;;7.20;99.90;;;;;;5044922;28;20041;-66
2022/09/28 09:04:41;;;;;;;13.88;8.32;;;7.20;99.90;;;;;;5045756;28;20525;-65
2022/09/28 09:07:33;;;;;;;13.73;8.80;;;7.20;99.90;;;;;;5046163;28;20064;-65
2022/09/28 09:10:29;;;;;;;12.85;8.80;;;7.20;99.90;;;;;;5046601;28;20115;-65
2022/09/28 09:12:54;;;;;;;14.20;7.97;;;7.30;99.90;;;;;;5045795;28;20053;-66
2022/09/28 09:15:28;;;;;;;;;;;7.30;99.90;;;;;;5049734;28;20031;-65
2022/09/28 09:18:25;;;;;;;11.30;7.60;;;7.30;99.90;;;;;;5042977;28;19927;-65
2022/09/28 09:21:01;;;;;;;14.68;7.38;;;7.50;99.90;;;;;;5046661;28;20091;-66
2022/09/28 09:23:30;;;;;;;;;;;7.70;99.90;;;;;;5046240;28;20049;-65
2022/09/28 09:26:12;;;;;;;10.75;6.88;;;7.70;99.90;;;;;;5046358;28;20504;-65
2022/09/28 09:29:02;;;;;;;9.60;6.82;;;7.70;99.90;;;;;;5046314;28;20065;-65
2022/09/28 09:31:49;;;;;;;11.02;6.05;;;7.60;99.90;;;;;;5046101;28;20040;-66
2022/09/28 09:34:32;;;;;;;11.55;7.43;;;7.60;99.90;;;;;;5038101;28;20045;-66
2022/09/28 09:37:20;;;;;;;9.65;6.70;;;7.60;99.90;;;;;;5038699;28;20052;-65
2022/09/28 09:40:01;;;;;;;13.60;6.18;;;7.60;99.90;;;;;;5049354;28;20045;-65
2022/09/28 09:43:04;;;;;;;8.75;6.10;;;7.50;99.90;;;;;;5047108;28;20194;-65
2022/09/28 09:45:51;;;;;;;7.85;5.68;;;7.40;99.90;;;;;;5046917;28;20040;-66
2022/09/28 09:48:28;;;;;;;8.38;6.22;;;7.50;99.90;;;;;;5038568;28;20039;-66
2022/09/28 09:51:01;;;;;;;9.45;5.55;;;7.60;99.90;;;;;;5046493;28;20049;-66
2022/09/28 09:53:36;;;;;;;7.13;4.78;;;7.80;99.90;;;;;;5044447;28;20821;-65
2022/09/28 09:56:18;;;;;;;6.50;4.65;;;7.90;99.90;;;;;;5044800;28;20505;-65
2022/09/28 09:58:52;;;;;;;5.88;3.63;;;8.00;99.90;;;;;;5049142;28;20037;-62
2022/09/28 10:01:25;;;;;;;6.43;3.90;;;8.00;99.90;;;;;;5040564;28;20036;-66
2022/09/28 10:03:52;;;;;;;7.22;4.70;;;8.00;99.90;;;;;;5045689;28;20043;-66
2022/09/28 10:06:28;;;;;;;5.57;3.92;;;8.10;99.90;;;;;;5044265;28;20037;-66
2022/09/28 10:09:04;;;;;;;6.57;4.20;;;8.10;99.90;;;;;;5049188;28;20044;-65
2022/09/28 10:11:43;;;;;;;7.68;4.45;;;8.10;99.90;;;;;;5045497;28;20044;-65
2022/09/28 10:14:18;;;;;;;8.23;3.40;;;8.10;99.90;;;;;;5062505;28;20094;-65
2022/09/28 10:16:46;;;;;;;6.32;3.42;;;8.10;99.90;;;;;;5044283;28;20041;-64
2022/09/28 10:19:13;;;;;;;5.28;3.72;;;8.20;99.90;;;;;;5046245;28;20041;-65
2022/09/28 10:21:41;;;;;;;4.70;3.47;;;8.20;99.90;;;;;;5045072;28;20037;-63
2022/09/28 10:24:21;;;;;;;5.28;3.90;;;8.30;99.90;;;;;;5041369;28;20075;-65
2022/09/28 10:26:51;;;;;;;5.03;3.70;;;8.40;99.90;;;;;;5042648;28;20044;-66
2022/09/28 10:29:25;;;;;;;4.13;3.10;;;8.40;99.90;;;;;;5038997;28;20045;-67
2022/09/28 10:31:52;;;;;;;4.80;3.50;;;8.20;99.90;;;;;;5051936;28;20036;-63
2022/09/28 10:34:26;;;;;;;4.55;3.38;;;8.30;99.90;;;;;;5058256;28;20033;-65
2022/09/28 10:36:54;;;;;;;7.72;3.70;;;8.30;99.90;;;;;;5059293;28;20038;-66
2022/09/28 10:39:37;;;;;;;5.50;3.42;;;8.20;99.90;;;;;;5065328;28;20040;-64
2022/09/28 10:42:09;;;;;;;4.40;3.60;;;8.30;99.90;;;;;;5073375;28;20036;-66
2022/09/28 10:45:00;;;;;;;5.40;4.00;;;8.30;99.90;;;;;;5064966;28;20044;-66
2022/09/28 10:47:31;;;;;;;4.85;3.78;;;8.40;99.90;;;;;;5067302;28;20044;-65
2022/09/28 10:49:58;;;;;;;8.95;5.28;;;8.50;99.90;;;;;;5069188;28;20056;-66
2022/09/28 10:52:50;;;;;;;6.60;4.43;;;8.40;99.90;;;;;;5082512;28;20048;-64
2022/09/28 10:55:31;;;;;;;6.47;4.40;;;8.20;99.90;;;;;;5062332;28;20040;-66
2022/09/28 10:57:58;;;;;;;8.57;4.68;;;8.50;99.90;;;;;;5073380;28;20071;-65
2022/09/28 11:01:01;;;;;;;7.65;5.10;;;8.60;99.90;;;;;;5070726;28;20051;-65
2022/09/28 11:03:28;;;;;;;8.73;5.30;;;8.70;99.90;;;;;;5030231;28;20052;-67
2022/09/28 11:06:04;;;;;;;7.22;4.80;;;8.70;99.90;;;;;;5065454;28;20044;-65
2022/09/28 11:08:37;;;;;;;8.48;4.25;;;8.70;99.90;;;;;;5082854;28;20075;-66
2022/09/28 11:11:09;;;;;;;4.45;3.47;;;8.70;99.90;;;;;;5060504;28;20620;-65
2022/09/28 11:13:43;;;;;;;4.88;3.67;;;8.60;99.90;;;;;;5063277;28;20050;-66
2022/09/28 11:16:20;;;;;;;9.07;4.30;;;8.50;99.90;;;;;;5065804;28;20044;-67
2022/09/28 11:18:45;;;;;;;4.03;3.17;;;8.30;99.90;;;;;;5072311;28;20076;-65
2022/09/28 11:21:15;;;;;;;;;;;8.30;99.90;;;;;;5069504;28;20060;-65
2022/09/28 11:23:53;;;;;;;4.57;3.53;;;8.50;99.90;;;;;;5071079;28;19927;-65
2022/09/28 11:26:19;;;;;;;4.47;3.00;;;8.80;99.90;;;;;;5066990;28;20630;-65
2022/09/28 11:28:49;;;;;;;;;;;9.00;99.90;;;;;;5067079;28;20055;-65
2022/09/28 11:31:14;;;;;;;4.20;3.17;;;9.00;99.90;;;;;;5074985;28;19919;-66
2022/09/28 11:33:43;;;;;;;;;;;9.10;99.90;;;;;;5074329;28;20444;-66
2022/09/28 11:36:12;;;;;;;8.20;3.80;;;9.00;99.90;;;;;;5065539;28;20444;-65
2022/09/28 11:39:02;;;;;;;3.78;2.90;;;9.10;99.90;;;;;;5064062;28;20036;-67
2022/09/28 11:42:13;;;;;;;4.30;3.30;;;9.20;99.90;;;;;;5068293;28;20036;-65
2022/09/28 11:44:45;;;;;;;6.95;3.85;;;9.30;99.90;;;;;;4993963;28;20664;-65
2022/09/28 11:47:21;;;;;;;5.22;3.80;;;9.20;99.90;;;;;;4989171;28;20476;-65
2022/09/28 11:49:54;;;;;;;5.00;3.80;;;9.20;99.90;;;;;;5043671;28;20055;-65
2022/09/28 11:52:29;;;;;;;7.78;4.15;;;9.40;99.90;;;;;;5075326;28;20125;-64
2022/09/28 11:55:09;;;;;;;5.78;4.00;;;9.20;99.90;;;;;;5065902;28;20059;-65
2022/09/28 11:57:38;;;;;;;6.10;4.43;;;9.10;99.90;;;;;;5076153;28;20056;-66
2022/09/28 12:00:14;;;;;;;6.18;4.35;;;9.10;99.90;;;;;;5072242;28;20051;-65
2022/09/28 12:02:49;;;;;;;6.22;4.32;;;9.10;99.90;;;;;;5088894;28;20055;-65
2022/09/28 12:05:26;;;;;;;11.23;4.68;;;9.00;99.90;;;;;;5061895;28;20493;-66
2022/09/28 12:08:19;;;;;;;7.72;4.60;;;8.90;99.90;;;;;;5072051;28;20416;-67
2022/09/28 12:11:17;;;;;;;6.53;4.85;;;8.80;99.90;;;;;;5065428;28;20526;-65
2022/09/28 12:13:46;;;;;;;10.95;5.47;;;8.70;99.90;;;;;;5048553;28;20807;-67
2022/09/28 12:16:43;;;;;;;6.18;4.15;;;8.80;99.90;;;;;;5070367;28;20778;-66
2022/09/28 12:19:22;;;;;;;6.35;4.03;;;9.00;99.90;;;;;;5067458;28;20082;-67
2022/09/28 12:21:51;;;;;;;6.53;4.30;;;8.80;99.90;;;;;;5069378;28;20435;-67
2022/09/28 12:24:37;;;;;;;5.60;4.18;;;8.80;99.90;;;;;;5067801;28;20055;-66
2022/09/28 12:27:09;;;;;;;5.35;3.60;;;8.80;99.90;;;;;;5075691;28;20047;-66
2022/09/28 12:29:53;;;;;;;3.80;2.90;;;8.70;99.90;;;;;;5073215;28;20830;-65
2022/09/28 12:32:34;;;;;;;7.18;3.97;;;8.80;99.90;;;;;;5068218;28;20051;-65
2022/09/28 12:35:01;;;;;;;8.43;3.80;;;9.00;99.90;;;;;;5066718;28;20062;-65
2022/09/28 12:37:53;;;;;;;6.65;3.75;;;9.30;99.90;;;;;;5065789;28;20048;-65
2022/09/28 12:40:57;;;;;;;5.18;3.95;;;9.50;99.90;;;;;;5065830;28;20035;-65
2022/09/28 12:43:53;;;;;;;4.68;3.92;;;9.80;99.90;;;;;;5021363;28;20123;-66
2022/09/28 12:46:34;;;;;;;4.97;4.10;;;9.90;99.90;;;;;;5065662;28;20040;-64
2022/09/28 12:49:08;;;;;;;6.80;4.80;;;10.00;99.90;;;;;;5068480;28;20413;-64
2022/09/28 12:51:54;;;;;;;6.90;4.53;;;10.00;99.90;;;;;;5067071;28;20032;-65
2022/09/28 12:54:43;;;;;;;8.27;5.05;;;9.80;99.90;;;;;;5068456;28;20044;-65
2022/09/28 12:57:33;;;;;;;7.93;4.70;;;9.70;99.90;;;;;;5066076;28;20094;-65
2022/09/28 13:00:14;;;;;;;8.05;5.07;;;9.70;99.90;;;;;;5070592;28;20047;-67
2022/09/28 13:03:06;;;;;;;9.07;5.60;;;9.40;99.90;;;;;;5066022;28;20040;-64
2022/09/28 13:05:43;;;;;;;6.07;4.82;;;9.30;99.90;;;;;;5066716;28;20048;-65
2022/09/28 13:08:23;;;;;;;5.50;4.50;;;9.20;99.90;;;;;;5063576;28;20135;-68
2022/09/28 13:11:04;;;;;;;7.30;4.47;;;9.30;99.90;;;;;;5066760;28;20044;-65
2022/09/28 13:13:46;;;;;;;5.45;4.10;;;9.00;99.90;;;;;;5062507;28;20386;-65
2022/09/28 13:16:16;;;;;;;8.07;4.38;;;8.70;99.90;;;;;;5075895;28;20411;-66
2022/09/28 13:18:55;;;;;;;4.63;3.95;;;8.70;99.90;;;;;;5077735;28;20447;-66
2022/09/28 13:21:37;;;;;;;5.47;4.60;;;8.80;99.90;;;;;;5078269;28;20066;-65
2022/09/28 13:24:07;;;;;;;10.90;4.65;;;8.90;99.90;;;;;;5073806;28;20033;-66
2022/09/28 13:26:39;;;;;;;4.88;3.58;;;9.00;99.90;;;;;;5076821;28;20396;-65
2022/09/28 13:29:14;;;;;;;5.53;4.22;;;9.20;99.90;;;;;;5079050;28;20047;-65
2022/09/28 13:31:57;;;;;;;7.68;3.90;;;9.20;99.90;;;;;;5079686;28;20069;-66
2022/09/28 13:34:32;;;;;;;6.05;4.00;;;9.20;99.90;;;;;;5065482;28;20123;-64
2022/09/28 13:37:13;;;;;;;12.45;5.18;;;9.10;99.90;;;;;;5076325;28;20137;-65
2022/09/28 13:39:44;;;;;;;7.32;5.38;;;9.10;99.90;;;;;;5071440;28;20717;-66
2022/09/28 13:42:49;;;;;;;9.25;5.55;;;9.00;99.90;;;;;;5060947;28;20040;-65
2022/09/28 13:45:21;;;;;;;7.13;5.32;;;8.90;99.90;;;;;;5070952;28;20083;-66
2022/09/28 13:48:01;;;;;;;8.20;5.50;;;8.90;99.90;;;;;;5078163;28;20040;-66